sensor_id;sensor_type;location;lat;lon;timestamp;pressure;altitude;pressure_sealevel;temperature;humidity
2401;BME280;1211;43.200;27.914;2023-05-01T00:01:31;101063.06;;;15.24;100.00
2401;BME280;1211;43.200;27.914;2023-05-01T00:03:57;101064.25;;;15.11;100.00
2401;BME280;1211;43.200;27.914;2023-05-01T00:06:24;101074.09;;;14.96;100.00
2401;BME280;1211;43.200;27.914;2023-05-01T00:08:52;101066.72;;;14.88;100.00
2401;BME280;1211;43.200;27.914;2023-05-01T00:11:18;101062.28;;;15.11;100.00
2401;BME280;1211;43.200;27.914;2023-05-01T00:13:45;101076.50;;;15.10;100.00
2401;BME280;1211;43.200;27.914;2023-05-01T00:16:13;101075.59;;;14.94;100.00
2401;BME280;1211;43.200;27.914;2023-05-01T00:18:41;101081.34;;;15.25;100.00
2401;BME280;1211;43.200;27.914;2023-05-01T00:21:07;101082.75;;;15.19;100.00
2401;BME280;1211;43.200;27.914;2023-05-01T00:23:34;101082.69;;;15.43;100.00
2401;BME280;1211;43.200;27.914;2023-05-01T00:26:01;101076.06;;;15.08;100.00
2401;BME280;1211;43.200;27.914;2023-05-01T00:28:28;101084.38;;;15.20;100.00
2401;BME280;1211;43.200;27.914;2023-05-01T00:30:55;101084.63;;;15.03;100.00
2401;BME280;1211;43.200;27.914;2023-05-01T00:33:24;101085.97;;;15.09;100.00
2401;BME280;1211;43.200;27.914;2023-05-01T00:35:50;101093.84;;;15.07;100.00
2401;BME280;1211;43.200;27.914;2023-05-01T00:38:17;101096.84;;;15.14;100.00
2401;BME280;1211;43.200;27.914;2023-05-01T00:40:43;101086.19;;;15.16;100.00
2401;BME280;1211;43.200;27.914;2023-05-01T00:43:10;101089.72;;;15.41;100.00
2401;BME280;1211;43.200;27.914;2023-05-01T00:45:37;101087.78;;;15.29;100.00
2401;BME280;1211;43.200;27.914;2023-05-01T00:48:04;101080.34;;;14.69;100.00
2401;BME280;1211;43.200;27.914;2023-05-01T00:50:33;101092.91;;;15.15;100.00
2401;BME280;1211;43.200;27.914;2023-05-01T00:52:59;101093.34;;;15.29;100.00
2401;BME280;1211;43.200;27.914;2023-05-01T00:55:26;101099.75;;;14.81;100.00
2401;BME280;1211;43.200;27.914;2023-05-01T00:57:57;101104.25;;;15.10;100.00
2401;BME280;1211;43.200;27.914;2023-05-01T01:00:42;101101.91;;;15.24;100.00
2401;BME280;1211;43.200;27.914;2023-05-01T01:04:08;101099.78;;;15.45;100.00
2401;BME280;1211;43.200;27.914;2023-05-01T01:06:38;101102.50;;;15.70;100.00
2401;BME280;1211;43.200;27.914;2023-05-01T01:09:11;101102.09;;;15.55;100.00
2401;BME280;1211;43.200;27.914;2023-05-01T01:11:46;101103.69;;;14.68;100.00
2401;BME280;1211;43.200;27.914;2023-05-01T01:14:18;101103.34;;;14.69;100.00
2401;BME280;1211;43.200;27.914;2023-05-01T01:16:49;101111.63;;;15.18;100.00
2401;BME280;1211;43.200;27.914;2023-05-01T01:19:33;101105.53;;;14.88;100.00
2401;BME280;1211;43.200;27.914;2023-05-01T01:22:08;101105.34;;;15.33;100.00
2401;BME280;1211;43.200;27.914;2023-05-01T01:24:45;101104.69;;;15.24;100.00
2401;BME280;1211;43.200;27.914;2023-05-01T01:27:38;101105.47;;;15.37;100.00
2401;BME280;1211;43.200;27.914;2023-05-01T01:30:17;101113.34;;;15.35;100.00
2401;BME280;1211;43.200;27.914;2023-05-01T01:32:55;101111.22;;;15.44;100.00
2401;BME280;1211;43.200;27.914;2023-05-01T01:35:27;101121.28;;;15.60;100.00
2401;BME280;1211;43.200;27.914;2023-05-01T01:37:56;101107.53;;;15.52;100.00
2401;BME280;1211;43.200;27.914;2023-05-01T01:40:24;101108.28;;;15.77;100.00
2401;BME280;1211;43.200;27.914;2023-05-01T01:42:56;101109.69;;;15.71;100.00
2401;BME280;1211;43.200;27.914;2023-05-01T01:45:24;101119.22;;;15.57;100.00
2401;BME280;1211;43.200;27.914;2023-05-01T01:47:54;101120.38;;;15.56;100.00
2401;BME280;1211;43.200;27.914;2023-05-01T01:50:23;101124.63;;;15.66;100.00
2401;BME280;1211;43.200;27.914;2023-05-01T01:52:52;101124.28;;;15.55;100.00
2401;BME280;1211;43.200;27.914;2023-05-01T01:55:20;101114.47;;;15.46;100.00
2401;BME280;1211;43.200;27.914;2023-05-01T01:57:48;101122.88;;;15.61;100.00
2401;BME280;1211;43.200;27.914;2023-05-01T02:00:15;101125.91;;;15.44;100.00
2401;BME280;1211;43.200;27.914;2023-05-01T02:02:43;101127.09;;;15.43;100.00
2401;BME280;1211;43.200;27.914;2023-05-01T02:05:12;101123.84;;;15.41;100.00
2401;BME280;1211;43.200;27.914;2023-05-01T02:07:39;101122.31;;;15.44;100.00
2401;BME280;1211;43.200;27.914;2023-05-01T02:10:08;101125.19;;;15.72;100.00
2401;BME280;1211;43.200;27.914;2023-05-01T02:12:36;101127.25;;;15.75;100.00
2401;BME280;1211;43.200;27.914;2023-05-01T02:15:04;101135.06;;;15.85;100.00
2401;BME280;1211;43.200;27.914;2023-05-01T02:17:32;101131.41;;;15.81;100.00
2401;BME280;1211;43.200;27.914;2023-05-01T02:20:00;101147.34;;;15.84;100.00
2401;BME280;1211;43.200;27.914;2023-05-01T02:22:27;101145.94;;;15.90;100.00
2401;BME280;1211;43.200;27.914;2023-05-01T02:24:55;101142.84;;;15.79;100.00
2401;BME280;1211;43.200;27.914;2023-05-01T02:27:27;101151.00;;;16.00;100.00
2401;BME280;1211;43.200;27.914;2023-05-01T02:29:56;101158.88;;;15.98;100.00
2401;BME280;1211;43.200;27.914;2023-05-01T02:32:23;101148.94;;;15.57;100.00
2401;BME280;1211;43.200;27.914;2023-05-01T02:34:50;101145.91;;;15.62;100.00
2401;BME280;1211;43.200;27.914;2023-05-01T02:37:17;101152.00;;;15.80;100.00
2401;BME280;1211;43.200;27.914;2023-05-01T02:39:43;101145.25;;;15.93;100.00
2401;BME280;1211;43.200;27.914;2023-05-01T02:42:10;101141.59;;;16.04;100.00
2401;BME280;1211;43.200;27.914;2023-05-01T02:44:41;101150.44;;;16.22;97.31
2401;BME280;1211;43.200;27.914;2023-05-01T02:47:08;101155.13;;;16.34;94.00
2401;BME280;1211;43.200;27.914;2023-05-01T02:49:37;101152.72;;;15.77;96.04
2401;BME280;1211;43.200;27.914;2023-05-01T02:52:05;101166.63;;;15.40;100.00
2401;BME280;1211;43.200;27.914;2023-05-01T02:54:32;101162.88;;;14.96;100.00
2401;BME280;1211;43.200;27.914;2023-05-01T02:56:59;101168.19;;;15.13;100.00
2401;BME280;1211;43.200;27.914;2023-05-01T02:59:29;101176.84;;;15.12;100.00
2401;BME280;1211;43.200;27.914;2023-05-01T03:01:57;101173.81;;;15.41;100.00
2401;BME280;1211;43.200;27.914;2023-05-01T03:04:24;101167.47;;;15.93;100.00
2401;BME280;1211;43.200;27.914;2023-05-01T03:06:53;101175.13;;;15.84;100.00
2401;BME280;1211;43.200;27.914;2023-05-01T03:09:19;101177.84;;;15.96;100.00
2401;BME280;1211;43.200;27.914;2023-05-01T03:11:46;101174.47;;;15.75;100.00
2401;BME280;1211;43.200;27.914;2023-05-01T03:14:14;101186.09;;;16.20;100.00
2401;BME280;1211;43.200;27.914;2023-05-01T03:16:40;101185.56;;;16.30;100.00
2401;BME280;1211;43.200;27.914;2023-05-01T03:19:09;101183.75;;;16.06;100.00
2401;BME280;1211;43.200;27.914;2023-05-01T03:21:35;101182.22;;;16.09;100.00
2401;BME280;1211;43.200;27.914;2023-05-01T03:24:02;101187.47;;;16.26;100.00
2401;BME280;1211;43.200;27.914;2023-05-01T03:26:29;101195.34;;;16.52;100.00
2401;BME280;1211;43.200;27.914;2023-05-01T03:28:57;101187.69;;;16.05;100.00
2401;BME280;1211;43.200;27.914;2023-05-01T03:31:23;101192.91;;;16.51;100.00
2401;BME280;1211;43.200;27.914;2023-05-01T03:33:50;101202.81;;;16.64;100.00
2401;BME280;1211;43.200;27.914;2023-05-01T03:36:18;101204.00;;;17.10;100.00
2401;BME280;1211;43.200;27.914;2023-05-01T03:38:46;101201.22;;;16.94;100.00
2401;BME280;1211;43.200;27.914;2023-05-01T03:41:12;101208.13;;;17.00;100.00
2401;BME280;1211;43.200;27.914;2023-05-01T03:43:39;101203.56;;;16.92;99.39
2401;BME280;1211;43.200;27.914;2023-05-01T03:46:06;101210.38;;;17.10;98.17
2401;BME280;1211;43.200;27.914;2023-05-01T03:48:33;101215.41;;;17.20;97.47
2401;BME280;1211;43.200;27.914;2023-05-01T03:51:00;101212.13;;;17.34;95.71
2401;BME280;1211;43.200;27.914;2023-05-01T03:53:28;101220.06;;;16.85;96.14
2401;BME280;1211;43.200;27.914;2023-05-01T03:55:54;101224.38;;;16.55;96.95
2401;BME280;1211;43.200;27.914;2023-05-01T03:58:21;101227.84;;;16.08;100.00
2401;BME280;1211;43.200;27.914;2023-05-01T04:00:48;101231.03;;;16.22;100.00
2401;BME280;1211;43.200;27.914;2023-05-01T04:03:15;101241.91;;;16.99;100.00
2401;BME280;1211;43.200;27.914;2023-05-01T04:05:41;101239.13;;;17.14;100.00
2401;BME280;1211;43.200;27.914;2023-05-01T04:08:08;101228.94;;;17.06;100.00
2401;BME280;1211;43.200;27.914;2023-05-01T04:10:36;101233.63;;;17.18;100.00
2401;BME280;1211;43.200;27.914;2023-05-01T04:13:03;101240.91;;;17.38;100.00
2401;BME280;1211;43.200;27.914;2023-05-01T04:15:31;101237.41;;;17.76;100.00
2401;BME280;1211;43.200;27.914;2023-05-01T04:17:57;101240.25;;;17.60;100.00
2401;BME280;1211;43.200;27.914;2023-05-01T04:20:24;101242.38;;;17.51;100.00
2401;BME280;1211;43.200;27.914;2023-05-01T04:22:51;101245.66;;;17.38;100.00
2401;BME280;1211;43.200;27.914;2023-05-01T04:25:17;101243.94;;;17.49;100.00
2401;BME280;1211;43.200;27.914;2023-05-01T04:27:45;101249.31;;;17.73;100.00
2401;BME280;1211;43.200;27.914;2023-05-01T04:30:12;101242.69;;;17.15;100.00
2401;BME280;1211;43.200;27.914;2023-05-01T04:32:39;101249.69;;;17.56;100.00
2401;BME280;1211;43.200;27.914;2023-05-01T04:35:06;101252.06;;;17.57;100.00
2401;BME280;1211;43.200;27.914;2023-05-01T04:37:33;101258.88;;;18.10;98.18
2401;BME280;1211;43.200;27.914;2023-05-01T04:39:59;101250.81;;;18.05;97.56
2401;BME280;1211;43.200;27.914;2023-05-01T04:42:29;101261.00;;;17.63;99.87
2401;BME280;1211;43.200;27.914;2023-05-01T04:44:57;101262.16;;;17.78;98.55
2401;BME280;1211;43.200;27.914;2023-05-01T04:47:27;101263.25;;;17.73;99.61
2401;BME280;1211;43.200;27.914;2023-05-01T04:49:54;101262.16;;;17.46;100.00
2401;BME280;1211;43.200;27.914;2023-05-01T04:52:21;101262.44;;;17.25;100.00
2401;BME280;1211;43.200;27.914;2023-05-01T04:54:47;101266.09;;;17.45;100.00
2401;BME280;1211;43.200;27.914;2023-05-01T04:57:14;101269.59;;;17.58;99.91
2401;BME280;1211;43.200;27.914;2023-05-01T04:59:41;101273.66;;;17.76;97.37
2401;BME280;1211;43.200;27.914;2023-05-01T05:02:09;101287.56;;;17.76;96.19
2401;BME280;1211;43.200;27.914;2023-05-01T05:04:36;101281.41;;;17.36;95.54
2401;BME280;1211;43.200;27.914;2023-05-01T05:07:02;101282.91;;;17.49;92.62
2401;BME280;1211;43.200;27.914;2023-05-01T05:09:29;101289.78;;;18.02;91.30
2401;BME280;1211;43.200;27.914;2023-05-01T05:11:56;101284.59;;;18.20;89.95
2401;BME280;1211;43.200;27.914;2023-05-01T05:14:23;101284.16;;;18.37;87.13
2401;BME280;1211;43.200;27.914;2023-05-01T05:16:49;101293.19;;;19.11;83.83
2401;BME280;1211;43.200;27.914;2023-05-01T05:19:17;101291.94;;;19.31;80.22
2401;BME280;1211;43.200;27.914;2023-05-01T05:21:44;101296.91;;;19.90;77.98
2401;BME280;1211;43.200;27.914;2023-05-01T05:24:12;101298.78;;;20.39;72.85
2401;BME280;1211;43.200;27.914;2023-05-01T05:26:38;101304.16;;;20.21;71.21
2401;BME280;1211;43.200;27.914;2023-05-01T05:29:05;101301.19;;;21.07;70.33
2401;BME280;1211;43.200;27.914;2023-05-01T05:31:32;101302.53;;;22.23;66.21
2401;BME280;1211;43.200;27.914;2023-05-01T05:33:59;101310.38;;;22.75;62.43
2401;BME280;1211;43.200;27.914;2023-05-01T05:36:27;101315.16;;;22.71;61.10
2401;BME280;1211;43.200;27.914;2023-05-01T05:38:54;101321.66;;;22.89;58.59
2401;BME280;1211;43.200;27.914;2023-05-01T05:41:21;101316.88;;;23.11;57.30
2401;BME280;1211;43.200;27.914;2023-05-01T05:43:47;101320.94;;;23.24;57.30
2401;BME280;1211;43.200;27.914;2023-05-01T05:46:14;101322.50;;;23.00;56.11
2401;BME280;1211;43.200;27.914;2023-05-01T05:48:41;101324.94;;;23.20;55.77
2401;BME280;1211;43.200;27.914;2023-05-01T05:51:07;101333.00;;;23.35;55.52
2401;BME280;1211;43.200;27.914;2023-05-01T05:53:36;101330.16;;;23.25;55.00
2401;BME280;1211;43.200;27.914;2023-05-01T05:56:02;101332.13;;;23.10;55.99
2401;BME280;1211;43.200;27.914;2023-05-01T05:58:30;101329.34;;;22.20;56.96
2401;BME280;1211;43.200;27.914;2023-05-01T06:00:56;101323.38;;;23.47;54.54
2401;BME280;1211;43.200;27.914;2023-05-01T06:03:23;101327.63;;;22.01;55.08
2401;BME280;1211;43.200;27.914;2023-05-01T06:05:51;101332.69;;;22.47;54.86
2401;BME280;1211;43.200;27.914;2023-05-01T06:08:18;101326.50;;;24.41;51.25
2401;BME280;1211;43.200;27.914;2023-05-01T06:10:46;101327.16;;;25.91;48.13
2401;BME280;1211;43.200;27.914;2023-05-01T06:13:12;101334.59;;;25.71;46.25
2401;BME280;1211;43.200;27.914;2023-05-01T06:15:39;101341.72;;;26.61;44.25
2401;BME280;1211;43.200;27.914;2023-05-01T06:18:07;101341.50;;;26.07;43.57
2401;BME280;1211;43.200;27.914;2023-05-01T06:20:34;101345.94;;;26.46;42.45
2401;BME280;1211;43.200;27.914;2023-05-01T06:23:01;101353.47;;;26.93;41.25
2401;BME280;1211;43.200;27.914;2023-05-01T06:25:28;101360.28;;;26.62;38.97
2401;BME280;1211;43.200;27.914;2023-05-01T06:27:56;101361.16;;;26.59;39.04
2401;BME280;1211;43.200;27.914;2023-05-01T06:30:23;101364.09;;;26.82;39.36
2401;BME280;1211;43.200;27.914;2023-05-01T06:32:50;101378.22;;;26.48;38.33
2401;BME280;1211;43.200;27.914;2023-05-01T06:35:17;101387.88;;;26.51;37.01
2401;BME280;1211;43.200;27.914;2023-05-01T06:37:43;101371.22;;;27.47;36.91
2401;BME280;1211;43.200;27.914;2023-05-01T06:40:10;101372.09;;;28.18;35.11
2401;BME280;1211;43.200;27.914;2023-05-01T06:42:37;101383.72;;;27.54;34.94
2401;BME280;1211;43.200;27.914;2023-05-01T06:45:06;101380.53;;;26.19;36.65
2401;BME280;1211;43.200;27.914;2023-05-01T06:47:33;101389.78;;;28.02;35.40
2401;BME280;1211;43.200;27.914;2023-05-01T06:49:59;101386.50;;;29.62;33.74
2401;BME280;1211;43.200;27.914;2023-05-01T06:52:26;101393.91;;;29.39;33.42
2401;BME280;1211;43.200;27.914;2023-05-01T06:54:56;101396.44;;;29.54;33.59
2401;BME280;1211;43.200;27.914;2023-05-01T06:57:23;101394.16;;;28.30;33.56
2401;BME280;1211;43.200;27.914;2023-05-01T06:59:50;101405.47;;;29.13;32.87
2401;BME280;1211;43.200;27.914;2023-05-01T07:02:18;101404.91;;;29.37;32.52
2401;BME280;1211;43.200;27.914;2023-05-01T07:04:45;101409.34;;;30.36;31.64
2401;BME280;1211;43.200;27.914;2023-05-01T07:07:11;101413.56;;;28.51;31.74
2401;BME280;1211;43.200;27.914;2023-05-01T07:09:38;101422.56;;;27.50;30.95
2401;BME280;1211;43.200;27.914;2023-05-01T07:12:05;101414.13;;;27.46;31.52
2401;BME280;1211;43.200;27.914;2023-05-01T07:14:33;101424.16;;;29.10;29.43
2401;BME280;1211;43.200;27.914;2023-05-01T07:16:59;101425.28;;;27.30;27.93
2401;BME280;1211;43.200;27.914;2023-05-01T07:19:27;101431.75;;;28.97;28.04
2401;BME280;1211;43.200;27.914;2023-05-01T07:21:54;101429.41;;;30.16;27.03
2401;BME280;1211;43.200;27.914;2023-05-01T07:24:21;101434.72;;;30.75;26.74
2401;BME280;1211;43.200;27.914;2023-05-01T07:26:47;101444.19;;;31.39;26.56
2401;BME280;1211;43.200;27.914;2023-05-01T07:29:14;101438.38;;;31.30;25.38
2401;BME280;1211;43.200;27.914;2023-05-01T07:31:41;101443.28;;;30.59;26.93
2401;BME280;1211;43.200;27.914;2023-05-01T07:34:08;101437.00;;;31.22;26.99
2401;BME280;1211;43.200;27.914;2023-05-01T07:36:37;101442.84;;;31.31;27.59
2401;BME280;1211;43.200;27.914;2023-05-01T07:39:03;101447.97;;;29.52;29.02
2401;BME280;1211;43.200;27.914;2023-05-01T07:41:30;101459.09;;;30.44;27.90
2401;BME280;1211;43.200;27.914;2023-05-01T07:43:57;101453.34;;;29.82;26.59
2401;BME280;1211;43.200;27.914;2023-05-01T07:46:24;101464.38;;;29.97;25.95
2401;BME280;1211;43.200;27.914;2023-05-01T07:48:51;101459.94;;;29.24;26.26
2401;BME280;1211;43.200;27.914;2023-05-01T07:51:17;101464.47;;;29.93;26.25
2401;BME280;1211;43.200;27.914;2023-05-01T07:53:45;101466.78;;;29.98;26.76
2401;BME280;1211;43.200;27.914;2023-05-01T07:56:13;101475.97;;;30.67;26.19
2401;BME280;1211;43.200;27.914;2023-05-01T07:58:40;101478.22;;;30.88;25.25
2401;BME280;1211;43.200;27.914;2023-05-01T08:01:08;101478.97;;;29.99;25.53
2401;BME280;1211;43.200;27.914;2023-05-01T08:03:35;101482.06;;;30.20;25.81
2401;BME280;1211;43.200;27.914;2023-05-01T08:06:01;101493.97;;;29.99;25.64
2401;BME280;1211;43.200;27.914;2023-05-01T08:08:28;101487.75;;;29.68;25.99
2401;BME280;1211;43.200;27.914;2023-05-01T08:10:56;101484.00;;;29.91;25.69
2401;BME280;1211;43.200;27.914;2023-05-01T08:13:25;101485.31;;;29.51;26.19
2401;BME280;1211;43.200;27.914;2023-05-01T08:15:51;101487.31;;;29.54;26.42
2401;BME280;1211;43.200;27.914;2023-05-01T08:18:18;101493.44;;;29.32;26.62
2401;BME280;1211;43.200;27.914;2023-05-01T08:20:45;101492.38;;;29.78;26.25
2401;BME280;1211;43.200;27.914;2023-05-01T08:23:12;101494.25;;;30.05;25.23
2401;BME280;1211;43.200;27.914;2023-05-01T08:25:39;101484.19;;;30.16;27.07
2401;BME280;1211;43.200;27.914;2023-05-01T08:28:07;101492.13;;;29.73;26.57
2401;BME280;1211;43.200;27.914;2023-05-01T08:30:34;101486.75;;;29.42;26.85
2401;BME280;1211;43.200;27.914;2023-05-01T08:33:01;101491.88;;;30.64;26.08
2401;BME280;1211;43.200;27.914;2023-05-01T08:35:27;101483.53;;;29.76;25.79
2401;BME280;1211;43.200;27.914;2023-05-01T08:37:54;101489.63;;;30.11;26.07
2401;BME280;1211;43.200;27.914;2023-05-01T08:40:21;101489.88;;;30.33;26.02
2401;BME280;1211;43.200;27.914;2023-05-01T08:42:48;101488.53;;;30.37;25.84
2401;BME280;1211;43.200;27.914;2023-05-01T08:45:16;101480.75;;;30.70;25.74
2401;BME280;1211;43.200;27.914;2023-05-01T08:47:44;101483.06;;;29.78;26.64
2401;BME280;1211;43.200;27.914;2023-05-01T08:50:10;101485.34;;;30.19;26.34
2401;BME280;1211;43.200;27.914;2023-05-01T08:52:39;101492.69;;;30.65;26.02
2401;BME280;1211;43.200;27.914;2023-05-01T08:55:07;101484.50;;;31.25;25.92
2401;BME280;1211;43.200;27.914;2023-05-01T08:57:37;101491.44;;;31.65;25.86
2401;BME280;1211;43.200;27.914;2023-05-01T09:00:05;101489.41;;;30.95;25.43
2401;BME280;1211;43.200;27.914;2023-05-01T09:02:34;101500.91;;;30.76;25.82
2401;BME280;1211;43.200;27.914;2023-05-01T09:05:01;101511.59;;;29.15;27.55
2401;BME280;1211;43.200;27.914;2023-05-01T09:07:29;101498.72;;;29.50;27.52
2401;BME280;1211;43.200;27.914;2023-05-01T09:09:56;101502.84;;;30.17;26.78
2401;BME280;1211;43.200;27.914;2023-05-01T09:12:24;101501.59;;;29.66;26.92
2401;BME280;1211;43.200;27.914;2023-05-01T09:14:53;101506.75;;;29.35;27.12
2401;BME280;1211;43.200;27.914;2023-05-01T09:17:21;101500.25;;;30.07;27.35
2401;BME280;1211;43.200;27.914;2023-05-01T09:19:50;101518.09;;;31.97;25.54
2401;BME280;1211;43.200;27.914;2023-05-01T09:22:17;101510.50;;;31.27;26.30
2401;BME280;1211;43.200;27.914;2023-05-01T09:24:44;101510.97;;;31.38;26.26
2401;BME280;1211;43.200;27.914;2023-05-01T09:27:11;101513.53;;;31.99;26.05
2401;BME280;1211;43.200;27.914;2023-05-01T09:29:38;101512.25;;;32.38;25.58
2401;BME280;1211;43.200;27.914;2023-05-01T09:32:12;101507.59;;;31.14;26.07
2401;BME280;1211;43.200;27.914;2023-05-01T09:34:39;101500.72;;;30.83;26.34
2401;BME280;1211;43.200;27.914;2023-05-01T09:37:07;101508.13;;;31.50;26.98
2401;BME280;1211;43.200;27.914;2023-05-01T09:39:34;101505.91;;;30.72;27.30
2401;BME280;1211;43.200;27.914;2023-05-01T09:42:01;101512.06;;;31.95;26.23
2401;BME280;1211;43.200;27.914;2023-05-01T09:44:28;101503.88;;;31.30;25.92
2401;BME280;1211;43.200;27.914;2023-05-01T09:46:54;101511.88;;;29.96;26.92
2401;BME280;1211;43.200;27.914;2023-05-01T09:49:30;101510.66;;;29.97;28.09
2401;BME280;1211;43.200;27.914;2023-05-01T09:52:11;101507.31;;;27.91;29.19
2401;BME280;1211;43.200;27.914;2023-05-01T09:54:38;101507.78;;;27.59;29.98
2401;BME280;1211;43.200;27.914;2023-05-01T09:57:05;101512.25;;;29.98;28.20
2401;BME280;1211;43.200;27.914;2023-05-01T09:59:32;101506.47;;;30.95;27.12
2401;BME280;1211;43.200;27.914;2023-05-01T10:01:59;101501.44;;;29.37;27.81
2401;BME280;1211;43.200;27.914;2023-05-01T10:04:29;101504.03;;;29.28;27.79
2401;BME280;1211;43.200;27.914;2023-05-01T10:06:56;101506.53;;;29.06;28.03
2401;BME280;1211;43.200;27.914;2023-05-01T10:09:28;101508.28;;;30.28;27.61
2401;BME280;1211;43.200;27.914;2023-05-01T10:11:56;101507.44;;;31.05;26.91
2401;BME280;1211;43.200;27.914;2023-05-01T10:14:23;101498.81;;;31.08;26.69
2401;BME280;1211;43.200;27.914;2023-05-01T10:16:52;101507.41;;;30.92;27.02
2401;BME280;1211;43.200;27.914;2023-05-01T10:19:21;101505.47;;;31.31;27.40
2401;BME280;1211;43.200;27.914;2023-05-01T10:21:48;101502.81;;;30.66;27.83
2401;BME280;1211;43.200;27.914;2023-05-01T10:24:15;101504.78;;;30.53;27.90
2401;BME280;1211;43.200;27.914;2023-05-01T10:26:43;101500.31;;;29.87;27.98
2401;BME280;1211;43.200;27.914;2023-05-01T10:29:10;101514.66;;;28.38;30.36
2401;BME280;1211;43.200;27.914;2023-05-01T10:31:37;101514.28;;;28.36;30.36
2401;BME280;1211;43.200;27.914;2023-05-01T10:34:04;101501.72;;;27.87;31.37
2401;BME280;1211;43.200;27.914;2023-05-01T10:36:33;101508.16;;;27.87;31.43
2401;BME280;1211;43.200;27.914;2023-05-01T10:39:03;101511.41;;;27.29;30.99
2401;BME280;1211;43.200;27.914;2023-05-01T10:44:20;101511.53;;;27.79;30.17
2401;BME280;1211;43.200;27.914;2023-05-01T10:46:47;101510.59;;;28.12;29.97
2401;BME280;1211;43.200;27.914;2023-05-01T10:49:14;101506.25;;;27.20;30.87
2401;BME280;1211;43.200;27.914;2023-05-01T10:54:23;101507.50;;;27.16;31.50
2401;BME280;1211;43.200;27.914;2023-05-01T10:56:51;101503.94;;;27.42;31.56
2401;BME280;1211;43.200;27.914;2023-05-01T10:59:20;101505.16;;;27.11;31.37
2401;BME280;1211;43.200;27.914;2023-05-01T11:01:47;101501.34;;;26.90;32.46
2401;BME280;1211;43.200;27.914;2023-05-01T11:07:13;101507.81;;;25.95;32.29
2401;BME280;1211;43.200;27.914;2023-05-01T11:09:42;101504.81;;;26.64;31.79
2401;BME280;1211;43.200;27.914;2023-05-01T11:12:09;101511.28;;;26.64;31.77
2401;BME280;1211;43.200;27.914;2023-05-01T11:20:05;101515.66;;;27.74;30.16
2401;BME280;1211;43.200;27.914;2023-05-01T11:22:32;101515.63;;;27.44;30.44
2401;BME280;1211;43.200;27.914;2023-05-01T11:25:00;101510.28;;;27.19;30.07
2401;BME280;1211;43.200;27.914;2023-05-01T11:27:28;101511.97;;;27.47;30.62
2401;BME280;1211;43.200;27.914;2023-05-01T11:29:56;101509.91;;;27.47;30.32
2401;BME280;1211;43.200;27.914;2023-05-01T11:32:24;101504.69;;;28.03;30.09
2401;BME280;1211;43.200;27.914;2023-05-01T11:34:52;101504.66;;;26.78;30.53
2401;BME280;1211;43.200;27.914;2023-05-01T11:37:22;101504.75;;;27.12;30.54
2401;BME280;1211;43.200;27.914;2023-05-01T11:40:04;101507.41;;;25.93;31.91
2401;BME280;1211;43.200;27.914;2023-05-01T11:42:44;101508.19;;;25.27;33.41
2401;BME280;1211;43.200;27.914;2023-05-01T11:45:11;101506.53;;;25.30;33.66
2401;BME280;1211;43.200;27.914;2023-05-01T11:47:38;101509.38;;;25.99;32.04
2401;BME280;1211;43.200;27.914;2023-05-01T11:50:05;101510.19;;;26.55;32.04
2401;BME280;1211;43.200;27.914;2023-05-01T11:52:41;101502.66;;;26.38;31.13
2401;BME280;1211;43.200;27.914;2023-05-01T11:55:09;101502.16;;;26.87;31.30
2401;BME280;1211;43.200;27.914;2023-05-01T11:57:43;101519.78;;;27.02;30.37
2401;BME280;1211;43.200;27.914;2023-05-01T12:00:11;101504.38;;;26.69;31.69
2401;BME280;1211;43.200;27.914;2023-05-01T12:02:38;101502.31;;;25.73;33.01
2401;BME280;1211;43.200;27.914;2023-05-01T12:05:14;101504.81;;;25.54;32.60
2401;BME280;1211;43.200;27.914;2023-05-01T12:07:42;101506.47;;;25.40;32.01
2401;BME280;1211;43.200;27.914;2023-05-01T12:10:09;101501.59;;;25.52;32.37
2401;BME280;1211;43.200;27.914;2023-05-01T12:12:36;101500.59;;;25.07;31.67
2401;BME280;1211;43.200;27.914;2023-05-01T12:15:03;101497.09;;;24.28;32.67
2401;BME280;1211;43.200;27.914;2023-05-01T12:17:29;101493.47;;;24.42;32.22
2401;BME280;1211;43.200;27.914;2023-05-01T12:19:57;101503.38;;;25.14;33.04
2401;BME280;1211;43.200;27.914;2023-05-01T12:22:23;101502.72;;;25.72;33.86
2401;BME280;1211;43.200;27.914;2023-05-01T12:25:05;101510.59;;;25.18;33.70
2401;BME280;1211;43.200;27.914;2023-05-01T12:27:42;101534.59;;;23.24;55.31
2401;BME280;1211;43.200;27.914;2023-05-01T12:30:09;101512.81;;;23.04;58.55
2401;BME280;1211;43.200;27.914;2023-05-01T12:32:36;101518.44;;;23.11;58.70
2401;BME280;1211;43.200;27.914;2023-05-01T12:35:11;101517.47;;;22.78;58.33
2401;BME280;1211;43.200;27.914;2023-05-01T12:37:37;101509.94;;;22.42;61.27
2401;BME280;1211;43.200;27.914;2023-05-01T12:40:06;101523.91;;;22.79;60.20
2401;BME280;1211;43.200;27.914;2023-05-01T12:42:37;101520.19;;;22.71;60.60
2401;BME280;1211;43.200;27.914;2023-05-01T12:45:04;101522.13;;;22.64;60.26
2401;BME280;1211;43.200;27.914;2023-05-01T12:47:34;101522.34;;;21.93;65.53
2401;BME280;1211;43.200;27.914;2023-05-01T12:50:01;101523.22;;;22.01;63.63
2401;BME280;1211;43.200;27.914;2023-05-01T12:52:28;101523.16;;;22.38;64.91
2401;BME280;1211;43.200;27.914;2023-05-01T12:55:00;101524.81;;;23.00;62.54
2401;BME280;1211;43.200;27.914;2023-05-01T12:57:29;101526.50;;;23.16;63.23
2401;BME280;1211;43.200;27.914;2023-05-01T12:59:58;101516.69;;;23.64;62.25
2401;BME280;1211;43.200;27.914;2023-05-01T13:02:28;101533.91;;;22.76;62.61
2401;BME280;1211;43.200;27.914;2023-05-01T13:05:04;101519.69;;;22.55;61.14
2401;BME280;1211;43.200;27.914;2023-05-01T13:07:31;101536.91;;;23.08;59.02
2401;BME280;1211;43.200;27.914;2023-05-01T13:09:58;101531.03;;;23.38;57.72
2401;BME280;1211;43.200;27.914;2023-05-01T13:12:25;101522.72;;;22.36;59.66
2401;BME280;1211;43.200;27.914;2023-05-01T13:14:53;101535.94;;;22.79;62.06
2401;BME280;1211;43.200;27.914;2023-05-01T13:17:21;101533.94;;;22.29;66.33